Time;durP1;ratioP1;P1;durP2;ratioP2;P2;SDS_P1;SDS_P2;PMS_P1;PMS_P2;Temp;Humidity;BMP_temperature;BMP_pressure;BME280_temperature;BME280_humidity;BME280_pressure;Samples;Min_cycle;Max_cycle;Signal;HPM_P1;HPM_P2
2022/05/23 00:00:18;;;;;;;4.03;2.08;;;;;;;18.39;78.59;99586.03;5081747;28;20199;-73
2022/05/23 00:02:45;;;;;;;2.33;2.13;;;;;;;18.38;78.33;99572.94;5061613;28;20241;-73
2022/05/23 00:05:12;;;;;;;2.65;1.70;;;;;;;18.51;78.33;99590.16;5077765;28;20278;-72
2022/05/23 00:07:43;;;;;;;5.22;2.22;;;;;;;18.56;77.48;99588.25;5081577;28;20279;-72
2022/05/23 00:10:12;;;;;;;2.45;1.90;;;;;;;18.44;77.29;99571.03;5090804;28;20581;-72
2022/05/23 00:12:40;;;;;;;1.80;1.70;;;;;;;18.41;76.63;99563.22;5090741;28;20202;-72
2022/05/23 00:15:09;;;;;;;3.08;2.30;;;;;;;18.41;77.64;99584.22;5090954;28;20204;-72
2022/05/23 00:17:36;;;;;;;2.88;2.33;;;;;;;18.28;79.86;99583.66;5088971;28;20201;-72
2022/05/23 00:20:03;;;;;;;1.70;1.60;;;;;;;18.24;79.83;99581.16;5090771;28;20284;-72
2022/05/23 00:22:31;;;;;;;4.45;1.98;;;;;;;18.26;82.96;99574.94;5082147;28;20615;-72
2022/05/23 00:25:00;;;;;;;4.65;1.80;;;;;;;18.19;83.99;99573.38;5070879;28;20210;-72
2022/05/23 00:27:26;;;;;;;6.22;2.35;;;;;;;18.27;80.92;99581.94;5075345;28;20264;-72
2022/05/23 00:29:53;;;;;;;2.92;2.25;;;;;;;18.34;79.99;99583.50;5070875;28;20205;-72
2022/05/23 00:35:21;;;;;;;3.90;2.45;;;;;;;18.31;79.14;99577.47;5090524;28;20590;-72
2022/05/23 00:37:49;;;;;;;4.78;2.00;;;;;;;18.39;80.23;99582.53;5080548;28;20209;-72
2022/05/23 00:40:36;;;;;;;5.55;2.22;;;;;;;18.44;80.37;99581.53;5080519;28;20199;-72
2022/05/23 00:43:14;;;;;;;3.83;1.80;;;;;;;18.57;77.18;99584.75;5071695;28;20206;-72
2022/05/23 00:45:41;;;;;;;2.55;1.75;;;;;;;18.48;77.48;99574.44;5083651;28;20210;-72
2022/05/23 00:48:09;;;;;;;3.63;1.73;;;;;;;18.35;77.14;99563.38;5078892;28;20202;-72
2022/05/23 00:50:38;;;;;;;4.63;1.90;;;;;;;18.34;77.96;99567.75;5071616;28;20202;-72
2022/05/23 00:53:05;;;;;;;1.95;1.60;;;;;;;18.31;78.75;99570.47;5071893;28;20279;-72
2022/05/23 00:55:38;;;;;;;2.50;2.17;;;;;;;18.25;78.10;99564.50;5089699;28;20217;-72
2022/05/23 00:58:09;;;;;;;1.90;1.80;;;;;;;18.30;80.09;99581.84;5087405;28;20591;-72
2022/05/23 01:00:36;;;;;;;4.60;2.03;;;;;;;18.37;79.00;99577.31;5033114;28;20191;-72
2022/05/23 01:03:07;;;;;;;3.25;1.98;;;;;;;18.27;78.94;99571.44;5070458;28;20195;-72
2022/05/23 01:05:36;;;;;;;2.63;2.00;;;;;;;18.10;79.25;99563.13;5050352;28;20203;-72
2022/05/23 01:08:04;;;;;;;4.40;2.40;;;;;;;18.06;79.41;99556.22;5057440;28;20239;-72
2022/05/23 01:10:34;;;;;;;3.80;1.83;;;;;;;18.18;79.80;99578.69;5094381;28;20230;-73
2022/05/23 01:13:01;;;;;;;3.50;1.88;;;;;;;17.94;81.53;99561.75;5094139;28;20198;-72
2022/05/23 01:15:30;;;;;;;3.38;1.55;;;;;;;18.03;81.95;99582.53;5074818;28;20197;-72
2022/05/23 01:17:57;;;;;;;1.95;1.60;;;;;;;18.00;82.79;99572.09;5075110;28;20195;-72
2022/05/23 01:20:24;;;;;;;4.93;2.08;;;;;;;18.00;82.71;99572.09;5083511;28;20574;-72
2022/05/23 01:23:01;;;;;;;2.95;2.08;;;;;;;17.99;83.43;99575.63;5086010;28;20202;-72
2022/05/23 01:25:31;;;;;;;4.72;1.95;;;;;;;17.88;84.10;99550.53;5092042;28;20580;-74
2022/05/23 01:27:58;;;;;;;3.63;2.00;;;;;;;17.95;85.51;99566.09;5092849;28;20206;-74
2022/05/23 01:30:26;;;;;;;4.28;2.13;;;;;;;18.00;86.35;99560.75;5093833;28;20213;-72
2022/05/23 01:32:52;;;;;;;5.40;2.20;;;;;;;17.88;86.46;99566.25;5075092;28;20202;-72
2022/05/23 01:35:19;;;;;;;3.33;2.00;;;;;;;17.89;88.10;99554.88;5085678;28;20610;-72
2022/05/23 01:37:46;;;;;;;7.55;1.65;;;;;;;17.76;88.29;99555.13;5086750;28;20211;-72
2022/05/23 01:40:17;;;;;;;4.72;2.00;;;;;;;17.65;88.88;99564.16;5093906;28;20226;-73
2022/05/23 01:42:46;;;;;;;2.05;1.88;;;;;;;17.45;89.79;99526.97;5076783;28;20729;-72
2022/05/23 01:45:16;;;;;;;8.75;2.20;;;;;;;17.51;91.31;99558.34;5087958;28;20673;-74
2022/05/23 01:47:43;;;;;;;2.13;1.95;;;;;;;17.40;91.05;99537.59;5091909;28;20633;-74
2022/05/23 01:50:10;;;;;;;2.15;1.85;;;;;;;17.17;90.85;99490.91;5093460;28;20269;-74
2022/05/23 01:52:38;;;;;;;2.72;2.00;;;;;;;17.58;91.42;99568.69;5078182;28;20207;-75
2022/05/23 01:55:06;;;;;;;3.28;2.00;;;;;;;17.79;90.65;99585.69;5088105;28;20209;-74
2022/05/23 01:57:33;;;;;;;2.45;2.25;;;;;;;17.91;89.64;99582.78;5092543;28;20659;-74
2022/05/23 02:02:47;;;;;;;7.85;2.10;;;;;;;17.91;90.90;99590.66;5091774;28;20200;-74
2022/05/23 02:05:15;;;;;;;4.97;2.15;;;;;;;17.95;90.95;99592.31;5090280;28;20198;-72
2022/05/23 02:07:41;;;;;;;3.33;1.65;;;;;;;18.04;88.99;99594.75;5093111;28;20242;-73
2022/05/23 02:10:09;;;;;;;6.35;2.00;;;;;;;18.00;89.83;99587.84;5092441;28;20700;-73
2022/05/23 02:12:36;;;;;;;1.95;1.73;;;;;;;17.77;90.31;99559.50;5093228;28;20634;-73
2022/05/23 02:15:06;;;;;;;4.30;1.50;;;;;;;17.84;90.65;99570.72;5078660;28;20206;-73
2022/05/23 02:17:34;;;;;;;2.83;1.98;;;;;;;17.87;90.34;99586.41;5090142;28;20677;-73
2022/05/23 02:20:02;;;;;;;4.30;2.00;;;;;;;17.82;90.78;99564.66;5089590;28;20222;-73
2022/05/23 02:22:29;;;;;;;2.05;1.95;;;;;;;17.80;91.24;99580.41;5093106;28;20312;-73
2022/05/23 02:24:56;;;;;;;2.65;1.75;;;;;;;17.70;91.61;99583.25;5043273;28;20208;-73
2022/05/23 02:27:22;;;;;;;1.77;1.67;;;;;;;17.61;92.64;99584.34;5073581;28;20628;-73
2022/05/23 02:29:49;;;;;;;2.38;1.92;;;;;;;17.68;91.12;99571.97;5077391;28;20600;-73
2022/05/23 02:32:17;;;;;;;3.63;2.00;;;;;;;17.75;90.30;99586.66;5053714;28;20221;-73
2022/05/23 02:34:44;;;;;;;2.30;2.10;;;;;;;17.63;91.34;99571.19;5073119;28;20198;-73
2022/05/23 02:37:12;;;;;;;2.33;1.90;;;;;;;17.54;93.30;99568.75;5047765;28;20202;-73
2022/05/23 02:39:39;;;;;;;9.98;2.20;;;;;;;17.50;94.63;99570.56;5027758;28;20223;-73
2022/05/23 02:42:07;;;;;;;10.52;6.05;;;;;;;17.79;100.00;99569.97;5052500;28;20196;-69
2022/05/23 02:44:34;;;;;;;6.47;2.33;;;;;;;17.70;100.00;99573.66;5064112;28;20774;-73
2022/05/23 02:47:01;;;;;;;4.00;2.42;;;;;;;17.69;98.97;99573.69;5072341;28;20206;-74
2022/05/23 02:49:29;;;;;;;4.65;2.13;;;;;;;17.60;94.65;99568.63;5071704;28;20201;-75
2022/05/23 02:51:56;;;;;;;5.03;2.83;;;;;;;17.59;100.00;99559.91;5072276;28;20206;-74
2022/05/23 02:54:26;;;;;;;6.60;2.53;;;;;;;17.46;100.00;99557.56;5079445;28;20194;-74
2022/05/23 02:56:52;;;;;;;15.77;6.50;;;;;;;17.66;100.00;99571.13;5075621;28;20809;-74
2022/05/23 02:59:20;;;;;;;3.95;2.33;;;;;;;17.47;100.00;99547.03;5073117;28;20222;-74
2022/05/23 03:04:33;;;;;;;2.15;2.00;;;;;;;17.56;100.00;99567.84;5081263;28;20685;-74
2022/05/23 03:07:00;;;;;;;8.23;4.00;;;;;;;17.66;100.00;99560.63;5092026;28;20234;-73
2022/05/23 03:09:27;;;;;;;8.93;2.97;;;;;;;17.46;100.00;99547.06;5091829;28;20202;-74
2022/05/23 03:11:54;;;;;;;5.32;2.33;;;;;;;17.50;100.00;99556.59;5092031;28;20241;-74
2022/05/23 03:14:26;;;;;;;6.72;2.75;;;;;;;17.27;100.00;99523.88;5084991;28;20186;-74
2022/05/23 03:16:53;;;;;;;4.15;2.67;;;;;;;17.31;100.00;99530.78;5074033;28;20214;-74
2022/05/23 03:19:19;;;;;;;3.13;2.83;;;;;;;17.54;100.00;99560.88;5035826;28;20226;-74
2022/05/23 03:27:15;;;;;;;8.95;3.90;;;;;;;17.71;100.00;99553.53;5071649;28;20252;-70
2022/05/23 03:29:42;;;;;;;4.25;2.70;;;;;;;18.00;100.00;99563.38;5084055;28;20210;-73
2022/05/23 03:32:09;;;;;;;5.43;3.03;;;;;;;17.98;100.00;99568.63;5089841;28;20213;-72
2022/05/23 03:34:36;;;;;;;7.82;3.50;;;;;;;17.60;100.00;99484.75;5088728;28;20643;-73
2022/05/23 03:37:06;;;;;;;4.30;3.00;;;;;;;18.07;100.00;99559.69;5077116;28;20264;-73
2022/05/23 03:39:33;;;;;;;6.95;2.95;;;;;;;18.34;100.00;99562.50;5072456;28;20859;-72
2022/05/23 03:41:59;;;;;;;3.83;3.22;;;;;;;18.88;100.00;99556.75;5066000;28;20203;-73
2022/05/23 03:44:26;;;;;;;3.65;2.90;;;;;;;20.09;100.00;99576.88;5064099;28;20627;-71
2022/05/23 03:46:53;;;;;;;5.80;2.28;;;;;;;20.80;81.10;99586.00;5077195;28;20214;-72
2022/05/23 03:49:20;;;;;;;7.00;2.83;;;;;;;21.34;82.50;99577.91;5072224;28;20198;-73
2022/05/23 03:51:47;;;;;;;8.95;2.95;;;;;;;22.24;76.27;99598.16;5080001;28;20259;-73
2022/05/23 03:54:15;;;;;;;10.07;2.70;;;;;;;23.14;68.54;99603.19;5034849;28;20255;-73
2022/05/23 03:56:42;;;;;;;3.38;2.40;;;;;;;23.63;65.66;99572.75;5081146;28;20207;-73
2022/05/23 03:59:08;;;;;;;5.72;2.28;;;;;;;24.09;61.35;99602.34;5023040;28;20223;-73
2022/05/23 04:01:37;;;;;;;7.35;2.30;;;;;;;24.30;59.34;99595.19;5086115;28;20673;-72
2022/05/23 04:04:04;;;;;;;7.32;2.72;;;;;;;24.84;58.14;99603.09;5090812;28;20202;-72
2022/05/23 04:06:32;;;;;;;5.22;2.97;;;;;;;25.08;57.29;99585.91;5090272;28;20205;-72
2022/05/23 04:08:58;;;;;;;6.15;2.20;;;;;;;25.14;54.62;99604.19;5091196;28;20853;-73
2022/05/23 04:11:26;;;;;;;4.38;2.65;;;;;;;25.22;53.58;99627.63;5074166;28;20601;-72
2022/05/23 04:13:53;;;;;;;9.68;2.22;;;;;;;25.32;51.86;99630.69;5079939;28;20210;-74
2022/05/23 04:16:20;;;;;;;3.60;2.42;;;;;;;25.43;52.66;99628.34;5090264;28;20209;-72
2022/05/23 04:18:47;;;;;;;1.83;1.73;;;;;;;25.74;49.86;99628.44;5088448;28;20206;-75
2022/05/23 04:21:14;;;;;;;6.35;2.22;;;;;;;25.88;49.50;99617.91;5076144;28;20228;-73
2022/05/23 04:23:40;;;;;;;5.80;2.72;;;;;;;25.88;48.76;99615.25;5027175;28;20261;-73
2022/05/23 04:26:08;;;;;;;9.57;2.40;;;;;;;25.82;49.15;99610.28;5065508;28;20217;-73
2022/05/23 04:28:39;;;;;;;6.85;2.45;;;;;;;25.74;50.16;99616.94;5071749;28;20746;-73
2022/05/23 04:31:06;;;;;;;11.05;2.50;;;;;;;25.59;48.99;99586.75;5083482;28;20227;-74
2022/05/23 04:36:17;;;;;;;3.47;2.20;;;;;;;26.51;49.02;99620.56;5070671;28;20206;-73
2022/05/23 04:38:44;;;;;;;3.00;2.30;;;;;;;26.32;48.92;99578.25;5084261;28;20193;-73
2022/05/23 04:41:12;;;;;;;6.88;2.78;;;;;;;26.21;49.34;99599.25;5088510;28;20229;-74
2022/05/23 04:43:40;;;;;;;3.42;2.60;;;;;;;26.45;50.22;99618.28;5095222;28;20204;-73
2022/05/23 04:46:07;;;;;;;8.55;2.60;;;;;;;26.45;51.00;99615.59;5077178;28;20244;-74
2022/05/23 04:51:18;;;;;;;3.13;2.25;;;;;;;26.04;53.29;99615.28;5079930;28;20210;-74
2022/05/23 04:53:45;;;;;;;8.32;2.25;;;;;;;26.39;53.31;99613.31;5088693;28;20213;-74
2022/05/23 04:56:12;;;;;;;3.58;2.30;;;;;;;25.37;52.64;99615.38;5089450;28;20704;-74
2022/05/23 04:58:40;;;;;;;7.95;2.10;;;;;;;25.16;53.85;99609.38;5094379;28;20190;-74
2022/05/23 05:01:07;;;;;;;2.60;2.33;;;;;;;25.51;52.66;99562.41;5090235;28;20218;-74
2022/05/23 05:03:33;;;;;;;2.00;1.90;;;;;;;25.24;53.01;99601.03;5084153;28;20199;-73
2022/05/23 05:06:00;;;;;;;3.40;2.30;;;;;;;25.61;53.17;99595.53;5089497;28;20202;-74
2022/05/23 05:08:28;;;;;;;2.72;2.20;;;;;;;25.66;51.50;99572.22;5094433;28;20230;-74
2022/05/23 05:10:57;;;;;;;2.63;2.30;;;;;;;26.20;50.13;99609.97;5064830;28;20288;-74
2022/05/23 05:13:24;;;;;;;3.70;2.13;;;;;;;25.00;51.58;99598.72;5085937;28;20277;-73
2022/05/23 05:15:52;;;;;;;3.33;2.20;;;;;;;25.14;52.24;99585.59;5025378;28;20214;-73
2022/05/23 05:18:19;;;;;;;4.78;3.13;;;;;;;26.08;51.29;99595.53;5035288;28;20195;-74
2022/05/23 05:20:45;;;;;;;3.88;2.05;;;;;;;26.46;49.65;99609.34;5050972;28;20218;-73
2022/05/23 05:23:12;;;;;;;9.93;2.10;;;;;;;27.34;47.36;99607.63;5073667;28;20252;-72
2022/05/23 05:25:41;;;;;;;3.42;2.10;;;;;;;27.14;46.27;99586.69;5071810;28;20196;-72
2022/05/23 05:28:09;;;;;;;2.03;1.88;;;;;;;25.81;49.10;99579.34;5065394;28;20234;-72
2022/05/23 05:30:41;;;;;;;3.28;2.47;;;;;;;25.39;51.83;99585.16;5073757;28;20705;-71
2022/05/23 05:33:12;;;;;;;4.53;2.10;;;;;;;25.11;52.71;99609.63;5073741;28;20198;-71
2022/05/23 05:35:41;;;;;;;2.25;1.95;;;;;;;24.90;52.75;99591.31;5074138;28;20194;-71
2022/05/23 05:38:22;;;;;;;3.65;2.00;;;;;;;24.55;54.23;99601.00;5073575;28;20195;-73
2022/05/23 05:40:58;;;;;;;2.17;1.95;;;;;;;24.47;55.27;99582.00;5083942;28;20638;-71
2022/05/23 05:43:28;;;;;;;1.98;1.85;;;;;;;23.52;55.48;99598.84;5093398;28;20201;-70
2022/05/23 05:45:59;;;;;;;3.75;2.20;;;;;;;23.78;57.39;99583.56;5091972;28;20201;-71
2022/05/23 05:48:29;;;;;;;2.70;2.08;;;;;;;23.68;54.09;99596.38;5093125;28;20206;-72
2022/05/23 05:50:58;;;;;;;2.97;1.77;;;;;;;22.79;54.36;99589.78;5093204;28;20206;-71
2022/05/23 05:53:28;;;;;;;1.60;1.50;;;;;;;22.52;57.12;99594.38;5092134;28;20756;-71
2022/05/23 05:55:55;;;;;;;5.50;2.05;;;;;;;22.66;60.10;99594.66;5093127;28;20197;-73
2022/05/23 05:58:22;;;;;;;4.28;1.90;;;;;;;22.88;62.04;99579.66;5092815;28;20207;-73
2022/05/23 06:00:49;;;;;;;1.88;1.77;;;;;;;22.53;65.99;99590.81;5092855;28;20236;-73
2022/05/23 06:03:16;;;;;;;3.17;1.85;;;;;;;22.40;66.93;99597.53;5093316;28;20201;-74
2022/05/23 06:11:24;;;;;;;3.85;1.92;;;;;;;22.07;68.41;99576.84;5092894;28;20201;-73
2022/05/23 06:13:51;;;;;;;2.38;2.08;;;;;;;;;;5092607;28;20198;-72
2022/05/23 06:16:18;;;;;;;8.95;2.15;;;;;;;21.55;71.78;99579.72;5092539;28;20198;-72
2022/05/23 06:18:46;;;;;;;4.07;2.00;;;;;;;21.62;68.59;99576.81;5092528;28;20208;-72
2022/05/23 06:21:14;;;;;;;2.55;2.00;;;;;;;21.75;71.49;99564.03;5092558;28;20313;-72
2022/05/23 06:23:41;;;;;;;2.17;1.77;;;;;;;21.08;70.76;99540.13;5092848;28;20206;-72
2022/05/23 06:26:08;;;;;;;3.45;1.95;;;;;;;21.13;70.84;99569.00;5092686;28;20674;-72
2022/05/23 06:28:36;;;;;;;7.30;2.20;;;;;;;20.92;73.94;99564.44;5092309;28;20191;-72
2022/05/23 06:31:04;;;;;;;2.65;1.70;;;;;;;20.88;77.37;99561.06;5092690;28;20202;-72
2022/05/23 06:33:31;;;;;;;4.07;1.70;;;;;;;20.81;75.52;99535.84;5092047;28;20687;-72
2022/05/23 06:35:58;;;;;;;7.18;1.90;;;;;;;21.08;76.16;99563.84;5092264;28;20205;-73
2022/05/23 06:38:26;;;;;;;3.40;2.33;;;;;;;21.20;73.87;99562.59;5092343;28;20229;-73
2022/05/23 06:40:53;;;;;;;4.85;1.70;;;;;;;20.93;72.10;99487.97;5092321;28;20302;-73
2022/05/23 06:43:21;;;;;;;2.38;1.90;;;;;;;21.42;72.51;99560.00;5092285;28;20194;-72
2022/05/23 06:45:48;;;;;;;2.85;1.73;;;;;;;21.59;71.93;99562.88;5092410;28;20855;-73
2022/05/23 06:48:16;;;;;;;1.38;1.38;;;;;;;21.73;67.85;99561.44;5092043;28;20585;-73
2022/05/23 06:50:43;;;;;;;2.60;1.30;;;;;;;21.65;68.68;99557.38;5091896;28;20201;-74
2022/05/23 06:53:11;;;;;;;4.20;1.88;;;;;;;21.61;67.88;99561.06;5092193;28;20199;-72
2022/05/23 06:55:39;;;;;;;8.93;1.70;;;;;;;21.64;65.96;99563.56;5056329;28;20193;-72
2022/05/23 06:58:07;;;;;;;4.00;2.05;;;;;;;21.77;68.91;99557.75;5091782;28;20584;-73
2022/05/23 07:00:36;;;;;;;3.60;1.73;;;;;;;21.83;65.28;99569.84;5091522;28;20279;-73
2022/05/23 07:03:03;;;;;;;1.45;1.35;;;;;;;21.60;61.48;99561.97;5055869;28;20194;-72
2022/05/23 07:13:45;;;;;;;1.75;1.65;;;;;;;21.62;60.40;99562.75;5091659;28;20599;-72
2022/05/23 07:16:13;;;;;;;3.58;1.40;;;;;;;21.64;59.71;99560.94;5055766;28;20654;-73
2022/05/23 07:18:40;;;;;;;2.13;1.92;;;;;;;21.62;61.91;99552.19;5091712;28;20195;-72
2022/05/23 07:21:07;;;;;;;3.08;1.80;;;;;;;21.75;61.99;99561.38;5091447;28;20221;-73
2022/05/23 07:23:34;;;;;;;1.70;1.60;;;;;;;21.36;59.31;99499.59;5091367;28;20206;-73
2022/05/23 07:26:02;;;;;;;2.95;1.55;;;;;;;21.80;58.58;99564.69;5091159;28;20208;-73
2022/05/23 07:28:30;;;;;;;1.70;1.60;;;;;;;21.76;57.76;99576.28;5091370;28;20217;-72
2022/05/23 07:30:57;;;;;;;1.35;1.27;;;;;;;21.92;59.27;99579.22;5091021;28;20251;-73
2022/05/23 07:33:24;;;;;;;3.58;1.85;;;;;;;21.95;58.91;99581.75;5091268;28;20280;-73
2022/05/23 07:35:55;;;;;;;4.20;1.40;;;;;;;21.70;57.12;99545.72;5091271;28;20202;-72
2022/05/23 07:38:21;;;;;;;2.28;1.77;;;;;;;21.75;57.86;99553.47;5090889;28;20256;-73
2022/05/23 07:40:49;;;;;;;2.83;1.88;;;;;;;21.86;57.60;99550.41;5091024;28;20225;-72
2022/05/23 07:43:18;;;;;;;2.75;1.63;;;;;;;22.19;56.35;99570.19;5090961;28;20209;-73
2022/05/23 07:45:45;;;;;;;5.10;1.67;;;;;;;22.02;57.47;99536.56;5091169;28;20693;-73
2022/05/23 07:48:12;;;;;;;1.58;1.48;;;;;;;22.28;57.10;99568.97;5090896;28;20206;-73
2022/05/23 07:50:39;;;;;;;1.30;1.30;;;;;;;22.14;55.45;99565.13;5090934;28;20259;-73
2022/05/23 08:01:20;;;;;;;1.45;1.35;;;;;;;22.47;53.18;99517.09;5090680;28;20220;-74
2022/05/23 08:03:47;;;;;;;5.55;1.70;;;;;;;22.68;54.06;99553.22;5091163;28;20229;-73
2022/05/23 08:06:14;;;;;;;2.38;1.67;;;;;;;22.31;52.78;99516.00;5090455;28;20290;-73
2022/05/23 08:08:40;;;;;;;4.05;1.85;;;;;;;22.29;53.06;99531.94;5090660;28;20261;-73
2022/05/23 08:11:09;;;;;;;1.63;1.42;;;;;;;22.61;53.37;99573.75;5090862;28;20734;-73
2022/05/23 08:13:39;;;;;;;3.22;1.75;;;;;;;22.50;53.08;99561.88;5090472;28;20641;-73
2022/05/23 08:16:06;;;;;;;2.90;1.50;;;;;;;22.63;52.57;99545.44;5054990;28;20256;-74
2022/05/23 08:18:33;;;;;;;1.92;1.65;;;;;;;22.65;52.14;99564.72;5090469;28;20750;-73
2022/05/23 08:21:01;;;;;;;2.97;1.42;;;;;;;22.66;52.73;99550.59;5090678;28;20312;-74
2022/05/23 08:23:29;;;;;;;1.63;1.52;;;;;;;22.22;52.07;99496.16;5090479;28;20788;-71
2022/05/23 08:25:56;;;;;;;1.52;1.45;;;;;;;22.62;53.09;99556.94;5090318;28;20206;-73
2022/05/23 08:28:23;;;;;;;3.10;1.50;;;;;;;22.67;53.19;99544.44;5090882;28;20263;-71
2022/05/23 08:30:51;;;;;;;2.95;1.80;;;;;;;22.68;51.25;99540.88;5054768;28;20631;-71
2022/05/23 08:33:18;;;;;;;12.38;1.73;;;;;;;22.62;52.84;99548.13;5090287;28;20263;-69
2022/05/23 08:35:45;;;;;;;14.93;2.00;;;;;;;22.66;53.11;99552.38;5054862;28;20692;-73
2022/05/23 08:38:13;;;;;;;11.35;2.08;;;;;;;22.77;53.33;99542.25;5090147;28;20309;-74
2022/05/23 08:40:50;;;;;;;2.65;1.73;;;;;;;22.70;53.40;99469.41;5090397;28;20221;-74
2022/05/23 08:43:24;;;;;;;1.60;1.50;;;;;;;23.31;52.04;99536.28;5090368;28;20205;-74
2022/05/23 08:45:57;;;;;;;1.95;1.85;;;;;;;23.50;51.55;99531.91;5090388;28;20695;-74
2022/05/23 08:48:28;;;;;;;1.58;1.48;;;;;;;23.32;51.90;99523.91;5090007;28;20723;-73
2022/05/23 08:51:00;;;;;;;6.30;1.90;;;;;;;23.31;52.38;99543.38;5090048;28;20674;-73
2022/05/23 08:53:31;;;;;;;1.50;1.40;;;;;;;23.48;51.43;99535.53;5090247;28;20230;-73
2022/05/23 08:56:01;;;;;;;1.77;1.67;;;;;;;23.43;50.71;99542.84;5071447;28;20194;-73
2022/05/23 08:58:34;;;;;;;10.15;1.73;;;;;;;23.32;52.70;99535.38;5090107;28;20202;-73
2022/05/23 09:01:06;;;;;;;3.65;1.77;;;;;;;23.35;51.73;99544.94;5090151;28;20222;-73
2022/05/23 09:03:38;;;;;;;4.18;1.67;;;;;;;23.56;54.95;99538.69;5090239;28;20678;-74
2022/05/23 09:06:10;;;;;;;6.55;1.65;;;;;;;23.55;51.73;99543.13;5090114;28;20203;-73
2022/05/23 09:08:48;;;;;;;10.40;1.80;;;;;;;23.50;50.50;99542.50;5022347;28;20225;-73
2022/05/23 09:11:26;;;;;;;2.67;1.95;;;;;;;23.58;52.14;99532.38;5090036;28;20206;-73
2022/05/23 09:13:53;;;;;;;4.10;1.95;;;;;;;23.69;51.88;99540.69;5090030;28;20310;-72
2022/05/23 09:16:21;;;;;;;11.10;1.60;;;;;;;23.49;51.59;99526.69;5082963;28;20668;-71
2022/05/23 09:18:53;;;;;;;2.38;1.67;;;;;;;23.40;52.69;99537.66;5047418;28;20203;-72
2022/05/23 09:21:19;;;;;;;1.45;1.35;;;;;;;23.58;52.16;99535.03;5014612;28;20219;-72
2022/05/23 09:23:50;;;;;;;2.28;1.80;;;;;;;23.67;51.32;99537.28;5049503;28;20203;-72
2022/05/23 09:26:28;;;;;;;1.85;1.52;;;;;;;23.84;49.70;99525.88;5049854;28;20207;-73
2022/05/23 09:28:55;;;;;;;5.18;2.10;;;;;;;24.04;50.86;99540.81;5051940;28;20783;-73
2022/05/23 09:31:44;;;;;;;6.25;1.98;;;;;;;24.04;49.26;99531.06;5053515;28;20698;-72
2022/05/23 09:34:33;;;;;;;5.30;2.00;;;;;;;24.04;48.11;99530.22;5053094;28;20257;-69
2022/05/23 09:37:02;;;;;;;5.95;1.85;;;;;;;24.17;48.90;99541.97;5034542;28;20211;-73
2022/05/23 09:39:31;;;;;;;5.53;2.17;;;;;;;24.38;49.40;99542.69;5053192;28;20282;-72
2022/05/23 09:47:49;;;;;;;1.85;1.70;;;;;;;24.43;49.05;99538.88;5052859;28;20341;-73
2022/05/23 09:50:35;;;;;;;3.85;2.20;;;;;;;24.25;48.94;99542.44;5053235;28;20290;-74
2022/05/23 09:53:03;;;;;;;3.38;1.90;;;;;;;24.21;49.56;99532.06;5052951;28;20199;-73
2022/05/23 09:55:33;;;;;;;5.70;1.80;;;;;;;24.17;49.93;99541.97;5052777;28;20195;-74
2022/05/23 09:58:03;;;;;;;4.03;1.60;;;;;;;24.16;50.26;99533.16;5052665;28;20207;-73
2022/05/23 10:00:34;;;;;;;5.13;1.92;;;;;;;24.08;50.78;99503.47;5017452;28;20642;-73
2022/05/23 10:03:06;;;;;;;4.10;1.65;;;;;;;23.90;49.71;99485.00;5052900;28;20191;-73
2022/05/23 10:05:34;;;;;;;2.03;1.75;;;;;;;23.95;50.81;99523.56;5052614;28;20239;-73
2022/05/23 10:08:04;;;;;;;9.88;1.92;;;;;;;24.01;51.61;99531.19;5052673;28;20654;-72
2022/05/23 10:10:32;;;;;;;5.93;1.70;;;;;;;23.81;49.48;99523.38;5053017;28;20249;-71
2022/05/23 10:13:20;;;;;;;4.63;2.25;;;;;;;24.16;50.00;99504.00;5052435;28;20211;-71
2022/05/23 10:15:51;;;;;;;10.23;2.53;;;;;;;24.25;51.47;99520.38;5052214;28;20238;-72
2022/05/23 10:18:23;;;;;;;4.03;2.00;;;;;;;24.34;50.68;99514.63;5052324;28;20195;-72
2022/05/23 10:20:51;;;;;;;5.35;1.77;;;;;;;24.22;49.34;99486.09;5052157;28;20675;-71
2022/05/23 10:23:21;;;;;;;1.50;1.40;;;;;;;24.50;48.11;99519.09;5052512;28;20192;-73
2022/05/23 10:25:59;;;;;;;1.60;1.50;;;;;;;24.31;47.05;99522.72;5051840;28;20235;-72
2022/05/23 10:28:36;;;;;;;2.35;1.67;;;;;;;24.30;46.88;99523.66;5052134;28;20207;-72
2022/05/23 10:31:07;;;;;;;1.83;1.67;;;;;;;24.24;47.62;99510.72;5051875;28;20590;-72
2022/05/23 10:33:37;;;;;;;1.73;1.63;;;;;;;24.30;46.83;99510.41;5052071;28;20214;-71
2022/05/23 10:36:09;;;;;;;5.45;1.80;;;;;;;24.31;47.11;99485.63;5051756;28;20196;-72
2022/05/23 10:44:26;;;;;;;2.08;1.70;;;;;;;24.76;45.99;99501.81;5052115;28;20252;-72
2022/05/23 10:47:04;;;;;;;7.32;1.80;;;;;;;25.04;45.22;99499.44;5052241;28;20220;-72
2022/05/23 10:49:40;;;;;;;8.80;1.67;;;;;;;25.03;44.47;99478.31;5051828;28;20292;-72
2022/05/23 10:52:14;;;;;;;2.90;1.52;;;;;;;25.05;45.28;99495.00;5051712;28;20261;-72
2022/05/23 10:54:52;;;;;;;2.35;2.25;;;;;;;25.17;45.58;99489.91;5051998;28;20656;-72
2022/05/23 10:57:31;;;;;;;3.72;2.33;;;;;;;24.74;45.04;99416.19;5051859;28;20265;-72
2022/05/23 11:00:05;;;;;;;4.43;1.70;;;;;;;25.03;45.31;99481.84;5051620;28;20242;-73
2022/05/23 11:02:50;;;;;;;2.03;1.65;;;;;;;25.08;44.69;99474.47;5051487;28;20219;-72
2022/05/23 11:05:27;;;;;;;4.15;1.40;;;;;;;24.99;44.20;99474.97;5051585;28;20257;-72
2022/05/23 11:08:06;;;;;;;2.15;1.20;;;;;;;24.69;41.80;99477.41;5051561;28;20664;-72
2022/05/23 11:10:40;;;;;;;3.00;1.38;;;;;;;24.53;43.59;99422.63;5051387;28;20199;-72
2022/05/23 11:13:18;;;;;;;7.43;1.48;;;;;;;25.01;43.34;99481.03;5051854;28;20214;-72
2022/05/23 11:16:00;;;;;;;10.07;1.42;;;;;;;24.62;40.93;99459.25;5051408;28;20257;-74
2022/05/23 11:18:40;;;;;;;2.75;1.33;;;;;;;24.78;42.17;99470.78;5051544;28;20206;-72
2022/05/23 11:21:12;;;;;;;2.53;1.40;;;;;;;24.86;42.34;99458.00;5051358;28;20196;-74
2022/05/23 11:23:43;;;;;;;2.05;1.80;;;;;;;24.95;43.34;99462.81;5051049;28;20290;-74
2022/05/23 11:26:18;;;;;;;1.65;1.40;;;;;;;25.21;42.79;99477.34;5051066;28;20211;-73
2022/05/23 11:34:26;;;;;;;2.42;1.50;;;;;;;25.21;42.17;99468.50;4989454;28;20292;-73
2022/05/23 11:37:01;;;;;;;2.88;1.55;;;;;;;25.26;41.97;99471.75;4989392;28;20221;-72
2022/05/23 11:39:45;;;;;;;1.60;1.50;;;;;;;25.36;42.39;99470.34;4989434;28;20743;-72
2022/05/23 11:42:15;;;;;;;3.90;1.83;;;;;;;25.26;42.33;99455.81;4988903;28;20662;-72
2022/05/23 11:45:56;;;;;;;2.53;1.70;;;;;;;25.27;43.10;99444.28;4989279;28;20213;-72
2022/05/23 11:47:51;;;;;;;2.55;1.60;;;;;;;25.40;42.04;99470.06;4989344;28;20275;-73
2022/05/23 11:50:24;;;;;;;1.77;1.60;;;;;;;25.59;42.12;99469.94;4988378;28;20683;-73
2022/05/23 11:53:09;;;;;;;1.65;1.40;;;;;;;25.81;41.62;99453.63;4988939;28;20216;-73
2022/05/23 11:56:03;;;;;;;2.92;1.63;;;;;;;26.05;42.52;99468.16;4989071;28;20224;-73
2022/05/23 11:58:42;;;;;;;1.95;1.77;;;;;;;25.88;41.59;99466.47;4989006;28;20272;-73
2022/05/23 12:01:20;;;;;;;2.00;1.60;;;;;;;25.86;41.52;99452.44;4988876;28;20205;-72
2022/05/23 12:04:08;;;;;;;3.47;1.58;;;;;;;25.76;40.17;99463.66;4988899;28;20705;-72
2022/05/23 12:06:39;;;;;;;1.60;1.50;;;;;;;25.82;40.80;99469.50;4988879;28;20194;-72
2022/05/23 12:09:25;;;;;;;2.95;1.45;;;;;;;25.87;41.50;99459.44;4972727;28;20333;-73
2022/05/23 12:12:14;;;;;;;4.70;2.40;;;;;;;25.83;40.32;99467.69;5023492;28;20203;-73
2022/05/23 12:15:01;;;;;;;3.65;1.50;;;;;;;26.02;39.97;99463.88;5050252;28;20249;-72
2022/05/23 12:17:30;;;;;;;2.15;1.58;;;;;;;26.03;40.14;99439.03;5027914;28;20204;-72
2022/05/23 12:19:59;;;;;;;1.80;1.70;;;;;;;26.37;40.31;99461.84;5027920;28;20670;-72
2022/05/23 12:22:34;;;;;;;4.57;1.33;;;;;;;25.69;38.56;99444.56;5027904;28;20227;-72
2022/05/23 12:25:22;;;;;;;3.33;1.38;;;;;;;26.13;40.69;99460.59;5028098;28;20203;-72
2022/05/23 12:28:17;;;;;;;1.50;1.40;;;;;;;26.04;38.94;99461.97;5027869;28;20207;-72
2022/05/23 12:31:01;;;;;;;2.88;1.80;;;;;;;26.14;39.36;99425.97;4989131;28;20236;-72
2022/05/23 12:33:27;;;;;;;2.05;1.50;;;;;;;26.54;38.82;99458.19;4988665;28;20216;-72
2022/05/23 12:35:58;;;;;;;4.25;1.42;;;;;;;26.60;37.27;99439.19;4988915;28;20264;-72
2022/05/23 12:38:49;;;;;;;2.95;1.40;;;;;;;26.71;36.62;99436.75;4989176;28;20430;-72
2022/05/23 12:41:37;;;;;;;6.63;1.63;;;;;;;27.07;36.80;99466.44;4988844;28;20214;-72
2022/05/23 12:44:46;;;;;;;1.80;1.38;;;;;;;27.06;37.37;99451.41;4988915;28;20678;-72
2022/05/23 12:47:32;;;;;;;3.65;1.60;;;;;;;26.95;37.15;99466.31;4990857;28;20370;-72